createdAt,value
2024-05-09T00:00:41.195Z,48192.36
2024-05-09T00:03:11.077Z,48188.28
2024-05-09T00:05:43.679Z,48193.17
2024-05-09T00:08:11.615Z,48192.36
2024-05-09T00:10:40.528Z,48204.59
2024-05-09T00:13:09.113Z,48200.93
2024-05-09T00:15:37.096Z,48201.33
2024-05-09T00:18:05.780Z,48197.66
2024-05-09T00:20:38.765Z,48202.96
2024-05-09T00:23:10.248Z,48202.55
2024-05-09T00:25:37.894Z,48208.68
2024-05-09T00:28:05.987Z,48208.67
2024-05-09T00:30:36.099Z,48190.73
2024-05-09T00:33:06.415Z,48196.43
2024-05-09T00:35:35.094Z,48200.11
2024-05-09T00:38:02.627Z,48197.66
2024-05-09T00:40:40.562Z,48202.96
2024-05-09T00:43:14.507Z,48203.37
2024-05-09T00:45:42.985Z,48211.94
2024-05-09T00:48:14.065Z,48212.35
2024-05-09T00:50:44.094Z,48198.89
2024-05-09T00:53:11.999Z,48203.37
2024-05-09T00:55:39.607Z,48210.71
2024-05-09T00:58:07.625Z,48216.84
2024-05-09T01:00:39.343Z,48216.83
2024-05-09T01:03:10.909Z,48206.63
2024-05-09T01:05:40.608Z,48211.94
2024-05-09T01:08:08.416Z,48213.57
2024-05-09T01:10:36.838Z,48223.36
2024-05-09T01:13:04.857Z,48219.69
2024-05-09T01:15:32.879Z,48211.95
2024-05-09T01:18:11.016Z,48228.26
2024-05-09T01:20:42.832Z,48232.34
2024-05-09T01:23:13.951Z,48227.44
2024-05-09T01:25:43.504Z,48236.41
2024-05-09T01:28:11.032Z,48222.14
2024-05-09T01:30:38.820Z,48210.30
2024-05-09T01:33:07.974Z,48215.61
2024-05-09T01:35:37.247Z,48227.03
2024-05-09T01:38:05.007Z,48226.22
2024-05-09T01:40:37.864Z,48227.85
2024-05-09T01:43:11.531Z,48237.23
2024-05-09T01:45:42.549Z,48230.29
2024-05-09T01:48:10.761Z,48226.63
2024-05-09T01:50:41.677Z,48232.34
2024-05-09T01:53:11.383Z,48239.68
2024-05-09T01:55:39.150Z,48245.39
2024-05-09T01:58:07.061Z,48235.19
2024-05-09T02:00:39.746Z,48239.27
2024-05-09T02:03:11.534Z,48233.15
2024-05-09T02:05:42.170Z,48224.18
2024-05-09T02:08:13.039Z,48237.64
2024-05-09T02:10:40.462Z,48237.64
2024-05-09T02:13:07.981Z,48246.61
2024-05-09T02:15:35.363Z,48238.45
2024-05-09T02:18:02.846Z,48242.53
2024-05-09T02:20:35.885Z,48242.53
2024-05-09T02:23:06.005Z,48245.79
2024-05-09T02:25:33.833Z,48238.45
2024-05-09T02:28:01.198Z,48220.51
2024-05-09T02:32:59.599Z,48252.32
2024-05-09T02:35:27.032Z,48238.45
2024-05-09T02:37:54.495Z,48256.80
2024-05-09T02:40:29.087Z,48233.15
2024-05-09T02:43:03.661Z,48238.45
2024-05-09T02:45:31.020Z,48239.27
2024-05-09T02:47:58.835Z,48243.76
2024-05-09T02:50:34.257Z,48232.74
2024-05-09T02:53:09.927Z,48235.60
2024-05-09T02:55:38.226Z,48238.86
2024-05-09T02:58:08.920Z,48234.78
2024-05-09T03:00:39.931Z,48238.86
2024-05-09T03:03:14.457Z,48244.98
2024-05-09T03:05:44.284Z,48232.34
2024-05-09T03:08:12.186Z,48240.49
2024-05-09T03:10:40.007Z,48230.70
2024-05-09T03:13:08.260Z,48235.19
2024-05-09T03:15:35.757Z,48237.23
2024-05-09T03:18:03.795Z,48236.41
2024-05-09T03:20:34.853Z,48237.64
2024-05-09T03:23:04.984Z,48237.23
2024-05-09T03:25:33.033Z,48226.63
2024-05-09T03:28:00.351Z,48225.80
2024-05-09T03:30:38.382Z,48238.86
2024-05-09T03:33:10.980Z,48227.03
2024-05-09T03:35:38.776Z,48222.55
2024-05-09T03:38:06.123Z,48227.44
2024-05-09T03:40:33.514Z,48218.47
2024-05-09T03:43:00.853Z,48233.15
2024-05-09T03:45:28.134Z,48233.15
2024-05-09T03:47:55.881Z,48217.65
2024-05-09T03:50:30.076Z,48231.11
2024-05-09T03:53:02.095Z,48223.36
2024-05-09T03:55:29.769Z,48217.65
2024-05-09T03:57:57.130Z,48220.10
2024-05-09T04:00:31.386Z,48205.00
2024-05-09T04:03:10.786Z,48197.66
2024-05-09T04:05:41.458Z,48189.91
2024-05-09T04:08:10.259Z,48202.15
2024-05-09T04:10:38.058Z,48199.70
2024-05-09T04:13:05.578Z,48162.18
2024-05-09T04:15:33.092Z,48174.41
2024-05-09T04:18:01.291Z,48176.04
2024-05-09T04:20:37.296Z,48171.15
2024-05-09T04:23:10.125Z,48182.16
2024-05-09T04:25:37.860Z,48176.05
2024-05-09T04:28:05.815Z,48191.54
2024-05-09T04:30:38.342Z,48188.69
2024-05-09T04:33:10.307Z,48195.62
2024-05-09T04:35:41.644Z,48200.51
2024-05-09T04:38:09.085Z,48199.70
2024-05-09T04:40:37.519Z,48200.52
2024-05-09T04:43:06.224Z,48197.66
2024-05-09T04:45:33.860Z,48202.15
2024-05-09T04:48:01.805Z,48192.77
2024-05-09T04:50:36.113Z,48197.26
2024-05-09T04:53:08.227Z,48218.47
2024-05-09T04:55:37.328Z,48206.23
2024-05-09T04:58:06.711Z,48204.60
2024-05-09T05:00:37.054Z,48220.91
2024-05-09T05:03:12.776Z,48203.78
2024-05-09T05:05:43.710Z,48196.84
2024-05-09T05:08:16.444Z,48207.86
2024-05-09T05:10:44.779Z,48199.29
2024-05-09T05:13:24.901Z,48198.88
2024-05-09T05:15:57.430Z,48207.45
2024-05-09T05:18:26.845Z,48204.60
2024-05-09T05:20:55.267Z,48187.87
2024-05-09T05:23:23.120Z,48210.30
2024-05-09T05:25:52.521Z,48217.24
2024-05-09T05:28:20.261Z,48198.07
2024-05-09T05:30:47.642Z,48211.53
2024-05-09T05:33:16.097Z,48209.90
2024-05-09T05:35:43.891Z,48196.03
2024-05-09T05:38:11.578Z,48205.00
2024-05-09T05:40:40.170Z,48212.34
2024-05-09T05:43:09.597Z,48193.99
2024-05-09T05:45:37.599Z,48206.23
2024-05-09T05:48:06.537Z,48211.13
2024-05-09T05:50:37.027Z,48198.89
2024-05-09T05:53:06.800Z,48198.48
2024-05-09T05:55:34.465Z,48204.19
2024-05-09T05:58:02.342Z,48201.33
2024-05-09T06:00:37.415Z,48197.25
2024-05-09T06:03:12.757Z,48197.25
2024-05-09T06:05:43.213Z,48196.43
2024-05-09T06:08:10.875Z,48201.33
2024-05-09T06:10:40.409Z,48203.37
2024-05-09T06:13:12.163Z,48197.25
2024-05-09T06:15:40.170Z,48195.62
2024-05-09T06:18:08.748Z,48209.08
2024-05-09T06:20:38.208Z,48200.11
2024-05-09T06:23:06.491Z,48197.26
2024-05-09T06:25:35.449Z,48202.15
2024-05-09T06:28:03.283Z,48195.21
2024-05-09T06:30:38.629Z,48196.03
2024-05-09T06:33:10.222Z,48196.44
2024-05-09T06:35:39.012Z,48191.14
2024-05-09T06:38:08.628Z,48198.88
2024-05-09T06:40:38.901Z,48197.66
2024-05-09T06:43:14.724Z,48180.94
2024-05-09T06:45:43.187Z,48183.38
2024-05-09T06:48:11.262Z,48196.44
2024-05-09T06:50:40.063Z,48195.62
2024-05-09T06:53:08.402Z,48193.17
2024-05-09T06:55:36.476Z,48187.87
2024-05-09T06:58:05.341Z,48185.83
2024-05-09T07:00:38.828Z,48193.99
2024-05-09T07:03:09.266Z,48194.80
2024-05-09T07:05:37.287Z,48189.91
2024-05-09T07:08:05.089Z,48194.40
2024-05-09T07:10:35.493Z,48187.87
2024-05-09T07:13:08.677Z,48178.90
2024-05-09T07:15:35.976Z,48192.36
2024-05-09T07:18:12.959Z,48186.24
2024-05-09T07:20:40.901Z,48185.83
2024-05-09T07:23:11.872Z,48181.75
2024-05-09T07:25:40.113Z,48182.16
2024-05-09T07:28:15.169Z,48189.50
2024-05-09T07:30:43.035Z,48193.58
2024-05-09T07:33:19.799Z,48185.83
2024-05-09T07:35:48.166Z,48182.98
2024-05-09T07:38:15.542Z,48188.69
2024-05-09T07:40:42.974Z,48189.10
2024-05-09T07:43:13.991Z,48197.66
2024-05-09T07:45:50.653Z,48184.20
2024-05-09T07:52:37.889Z,48182.57
2024-05-09T07:53:46.024Z,48192.76
2024-05-09T07:56:17.739Z,48191.95
2024-05-09T07:58:45.586Z,48185.43
2024-05-09T08:01:13.043Z,48191.54
2024-05-09T08:03:40.661Z,48175.23
2024-05-09T08:06:08.148Z,48188.69
2024-05-09T08:08:35.503Z,48194.40
2024-05-09T08:11:03.214Z,48177.68
2024-05-09T08:13:30.604Z,48197.25
2024-05-09T08:15:57.984Z,48189.50
2024-05-09T08:18:25.473Z,48200.52
2024-05-09T08:20:52.953Z,48201.34
2024-05-09T08:23:20.379Z,48180.12
2024-05-09T08:25:47.966Z,48182.16
2024-05-09T08:28:16.381Z,48186.64
2024-05-09T08:30:44.306Z,48189.50
2024-05-09T08:33:11.895Z,48185.43
2024-05-09T08:35:39.313Z,48189.09
2024-05-09T08:38:17.131Z,48205.41
2024-05-09T08:40:44.681Z,48187.46
2024-05-09T08:43:13.073Z,48186.65
2024-05-09T08:45:43.980Z,48182.57
2024-05-09T08:48:14.722Z,48194.80
2024-05-09T08:50:43.635Z,48186.65
2024-05-09T08:53:11.344Z,48176.86
2024-05-09T08:55:41.801Z,48186.65
2024-05-09T08:58:13.855Z,48186.65
2024-05-09T09:00:42.104Z,48175.64
2024-05-09T09:03:09.821Z,48180.94
2024-05-09T09:05:38.595Z,48179.71
2024-05-09T09:08:07.542Z,48176.45
2024-05-09T09:10:35.099Z,48178.90
2024-05-09T09:13:09.396Z,48167.07
2024-05-09T09:15:47.839Z,48187.46
2024-05-09T09:18:15.618Z,48182.57
2024-05-09T09:20:43.764Z,48170.74
2024-05-09T09:23:11.235Z,48175.63
2024-05-09T09:25:42.252Z,48186.65
2024-05-09T09:28:09.998Z,48174.41
2024-05-09T09:30:41.330Z,48175.23
2024-05-09T09:33:09.322Z,48190.32
2024-05-09T09:35:39.084Z,48180.94
2024-05-09T09:38:06.956Z,48169.11
2024-05-09T09:40:38.943Z,48182.16
2024-05-09T09:43:42.786Z,48178.08
2024-05-09T09:46:12.587Z,48177.68
2024-05-09T09:48:40.629Z,48187.46
2024-05-09T09:51:08.135Z,48174.41
2024-05-09T09:53:35.534Z,48177.27
2024-05-09T09:56:02.816Z,48189.51
2024-05-09T09:58:30.326Z,48174.01
2024-05-09T10:00:57.917Z,48170.34
2024-05-09T10:03:25.845Z,48198.89
2024-05-09T10:05:53.364Z,48187.46
2024-05-09T10:08:22.007Z,48176.45
2024-05-09T10:10:49.708Z,48180.53
2024-05-09T10:13:17.798Z,48192.36
2024-05-09T10:15:52.227Z,48179.71
2024-05-09T10:18:27.133Z,48167.07
2024-05-09T10:20:56.723Z,48166.26
2024-05-09T10:23:24.737Z,48168.70
2024-05-09T10:26:10.274Z,48170.74
2024-05-09T10:28:42.193Z,48167.89
2024-05-09T10:31:13.902Z,48183.38
2024-05-09T10:33:51.927Z,48160.55
2024-05-09T10:36:24.073Z,48170.34
2024-05-09T10:38:52.489Z,48171.15
2024-05-09T10:41:20.339Z,48173.19
2024-05-09T10:43:47.796Z,48175.63
2024-05-09T10:46:15.602Z,48187.46
2024-05-09T10:48:43.462Z,48177.68
2024-05-09T10:51:11.301Z,48165.03
2024-05-09T10:53:42.416Z,48164.62
2024-05-09T10:56:09.932Z,48184.20
2024-05-09T10:58:37.370Z,48159.73
2024-05-09T11:01:07.023Z,48167.07
2024-05-09T11:03:35.481Z,48167.07
2024-05-09T11:06:03.314Z,48168.70
2024-05-09T11:08:31.335Z,48177.27
2024-05-09T11:10:59.599Z,48177.68
2024-05-09T11:13:28.501Z,48164.62
2024-05-09T11:15:55.957Z,48185.43
2024-05-09T11:18:25.608Z,48176.05
2024-05-09T11:20:54.634Z,48176.45
2024-05-09T11:23:22.951Z,48187.46
2024-05-09T11:25:54.397Z,48170.34
2024-05-09T11:28:21.946Z,48165.44
2024-05-09T11:30:50.081Z,48168.70
2024-05-09T11:33:18.794Z,48173.60
2024-05-09T11:35:46.541Z,48183.79
2024-05-09T11:38:13.872Z,48182.98
2024-05-09T11:40:42.248Z,48188.28
2024-05-09T11:43:09.725Z,48169.93
2024-05-09T11:45:37.133Z,48163.80
2024-05-09T11:48:04.823Z,48187.05
2024-05-09T11:50:35.574Z,48176.86
2024-05-09T11:53:03.594Z,48171.55
2024-05-09T11:55:31.101Z,48164.63
2024-05-09T11:57:58.572Z,48167.89
2024-05-09T12:00:33.968Z,48171.15
2024-05-09T12:03:05.850Z,48163.40
2024-05-09T12:05:34.392Z,48166.25
2024-05-09T12:08:02.363Z,48186.24
2024-05-09T12:10:33.859Z,48182.98
2024-05-09T12:13:05.364Z,48174.82
2024-05-09T12:15:36.262Z,48168.29
2024-05-09T12:18:05.033Z,48163.40
2024-05-09T12:20:37.372Z,48162.18
2024-05-09T12:23:09.394Z,48165.03
2024-05-09T12:25:38.272Z,48164.63
2024-05-09T12:28:06.339Z,48179.30
2024-05-09T12:30:38.311Z,48177.27
2024-05-09T12:33:09.265Z,48173.19
2024-05-09T12:35:37.466Z,48191.55
2024-05-09T12:38:05.130Z,48184.61
2024-05-09T12:40:36.834Z,48166.66
2024-05-09T12:43:07.901Z,48158.50
2024-05-09T12:45:36.262Z,48182.57
2024-05-09T12:48:06.891Z,48184.20
2024-05-09T12:50:35.090Z,48199.70
2024-05-09T12:53:03.796Z,48162.18
2024-05-09T12:55:40.520Z,48157.69
2024-05-09T12:58:18.391Z,48152.38
2024-05-09T13:00:46.379Z,48162.59
2024-05-09T13:03:14.309Z,48189.91
2024-05-09T13:05:44.613Z,48152.79
2024-05-09T13:08:12.874Z,48182.16
2024-05-09T13:10:40.292Z,48160.54
2024-05-09T13:13:09.605Z,48164.21
2024-05-09T13:15:37.381Z,48156.88
2024-05-09T13:18:05.875Z,48159.73
2024-05-09T13:20:35.485Z,48162.99
2024-05-09T13:23:04.820Z,48158.09
2024-05-09T13:25:34.295Z,48150.34
2024-05-09T13:28:02.452Z,48162.18
2024-05-09T13:30:38.526Z,48195.63
2024-05-09T13:33:10.669Z,48159.73
2024-05-09T13:35:39.814Z,48154.43
2024-05-09T13:38:08.000Z,48169.93
2024-05-09T13:40:36.578Z,48177.27
2024-05-09T13:43:05.482Z,48140.97
2024-05-09T13:45:33.886Z,48146.68
2024-05-09T13:48:02.629Z,48160.54
2024-05-09T13:50:34.532Z,48147.08
2024-05-09T13:53:06.325Z,48153.20
2024-05-09T13:55:36.847Z,48152.79
2024-05-09T13:58:04.907Z,48156.87
2024-05-09T14:00:42.872Z,48162.58
2024-05-09T14:03:16.349Z,48162.99
2024-05-09T14:05:45.543Z,48176.04
2024-05-09T14:08:15.123Z,48159.32
2024-05-09T14:10:45.034Z,48159.32
2024-05-09T14:13:13.727Z,48158.51
2024-05-09T14:15:41.522Z,48156.46
2024-05-09T14:18:12.593Z,48167.07
2024-05-09T14:20:41.977Z,48169.52
2024-05-09T14:23:09.748Z,48175.23
2024-05-09T14:25:41.837Z,48148.30
2024-05-09T14:28:11.564Z,48173.60
2024-05-09T14:30:39.904Z,48188.28
2024-05-09T14:33:08.436Z,48179.30
2024-05-09T14:35:39.473Z,48147.49
2024-05-09T14:38:07.723Z,48153.20
2024-05-09T14:40:41.374Z,48158.91
2024-05-09T14:43:12.395Z,48154.84
2024-05-09T14:45:40.597Z,48160.95
2024-05-09T14:48:08.469Z,48163.80
2024-05-09T14:50:39.031Z,48180.94
2024-05-09T14:53:08.763Z,48157.69
2024-05-09T14:55:37.647Z,48171.15
2024-05-09T14:58:06.874Z,48181.35
2024-05-09T15:00:39.191Z,48159.73
2024-05-09T15:03:08.833Z,48154.43
2024-05-09T15:05:36.473Z,48166.66
2024-05-09T15:08:07.970Z,48184.20
2024-05-09T15:10:37.089Z,48182.57
2024-05-09T15:13:06.604Z,48160.13
2024-05-09T15:15:35.667Z,48157.28
2024-05-09T15:18:06.402Z,48160.95
2024-05-09T15:20:36.792Z,48158.10
2024-05-09T15:23:06.078Z,48160.95
2024-05-09T15:25:34.557Z,48151.16
2024-05-09T15:28:02.889Z,48154.43
2024-05-09T15:30:32.987Z,48163.80
2024-05-09T15:33:05.757Z,48162.17
2024-05-09T15:35:34.758Z,48155.24
2024-05-09T15:38:03.348Z,48163.80
2024-05-09T15:40:37.920Z,48156.87
2024-05-09T15:43:09.575Z,48167.88
2024-05-09T15:45:39.545Z,48169.11
2024-05-09T15:48:08.252Z,48187.87
2024-05-09T15:50:39.935Z,48164.21
2024-05-09T15:53:10.786Z,48165.84
2024-05-09T15:55:42.376Z,48159.32
2024-05-09T15:58:10.295Z,48158.91
2024-05-09T16:00:41.597Z,48182.98
2024-05-09T16:03:12.619Z,48155.65
2024-05-09T16:05:45.731Z,48176.04
2024-05-09T16:08:14.346Z,48178.90
2024-05-09T16:10:48.105Z,48158.91
2024-05-09T16:13:16.470Z,48167.89
2024-05-09T16:15:47.878Z,48175.64
2024-05-09T16:18:15.643Z,48149.53
2024-05-09T16:20:44.879Z,48156.46
2024-05-09T16:23:13.891Z,48176.45
2024-05-09T16:25:46.147Z,48151.98
2024-05-09T16:28:13.992Z,48151.57
2024-05-09T16:30:41.760Z,48149.53
2024-05-09T16:33:11.041Z,48174.00
2024-05-09T16:35:39.305Z,48165.44
2024-05-09T16:38:06.954Z,48151.16
2024-05-09T16:40:38.907Z,48156.87
2024-05-09T16:43:12.738Z,48172.78
2024-05-09T16:45:41.271Z,48196.44
2024-05-09T16:48:08.982Z,48190.73
2024-05-09T16:50:36.892Z,48165.85
2024-05-09T16:53:05.746Z,48156.05
2024-05-09T16:55:34.416Z,48165.44
2024-05-09T16:58:02.331Z,48165.03
2024-05-09T17:00:39.194Z,48163.80
2024-05-09T17:03:12.710Z,48178.09
2024-05-09T17:05:41.912Z,48158.51
2024-05-09T17:08:09.968Z,48164.62
2024-05-09T17:10:37.512Z,48162.18
2024-05-09T17:13:06.892Z,48155.24
2024-05-09T17:15:36.890Z,48153.61
2024-05-09T17:18:06.161Z,48170.33
2024-05-09T17:20:36.298Z,48163.40
2024-05-09T17:23:12.146Z,48175.64
2024-05-09T17:25:39.838Z,48165.03
2024-05-09T17:28:08.303Z,48166.66
2024-05-09T17:30:39.041Z,48169.11
2024-05-09T17:33:09.403Z,48175.23
2024-05-09T17:35:37.911Z,48182.16
2024-05-09T17:38:05.966Z,48164.21
2024-05-09T17:40:36.440Z,48169.52
2024-05-09T17:43:06.803Z,48175.23
2024-05-09T17:45:37.525Z,48169.52
2024-05-09T17:48:05.936Z,48167.88
2024-05-09T17:50:36.165Z,48174.00
2024-05-09T17:53:05.797Z,48169.93
2024-05-09T17:55:33.748Z,48166.66
2024-05-09T17:58:01.647Z,48172.37
2024-05-09T18:00:37.222Z,48182.57
2024-05-09T18:03:08.650Z,48179.30
2024-05-09T18:05:37.281Z,48176.04
2024-05-09T18:08:08.591Z,48182.57
2024-05-09T18:10:38.947Z,48169.93
2024-05-09T18:13:08.235Z,48167.07
2024-05-09T18:15:36.229Z,48178.09
2024-05-09T18:18:04.426Z,48171.55
2024-05-09T18:20:40.492Z,48173.59
2024-05-09T18:23:13.263Z,48168.70
2024-05-09T18:25:41.279Z,48175.63
2024-05-09T18:28:08.939Z,48174.82
2024-05-09T18:30:37.503Z,48166.25
2024-05-09T18:33:09.899Z,48176.86
2024-05-09T18:35:37.581Z,48174.82
2024-05-09T18:38:05.739Z,48171.15
2024-05-09T18:40:36.384Z,48176.04
2024-05-09T18:43:07.372Z,48174.82
2024-05-09T18:45:39.805Z,48174.01
2024-05-09T18:48:08.948Z,48174.00
2024-05-09T18:50:39.630Z,48160.95
2024-05-09T18:53:09.963Z,48178.08
2024-05-09T18:55:37.633Z,48191.95
2024-05-09T18:58:05.276Z,48174.41
2024-05-09T19:00:36.589Z,48178.49
2024-05-09T19:03:09.247Z,48176.04
2024-05-09T19:05:39.396Z,48176.45
2024-05-09T19:08:07.893Z,48176.04
2024-05-09T19:10:36.918Z,48173.19
2024-05-09T19:13:09.076Z,48162.99
2024-05-09T19:15:40.037Z,48194.80
2024-05-09T19:18:08.110Z,48179.30
2024-05-09T19:20:36.863Z,48184.20
2024-05-09T19:23:05.399Z,48174.82
2024-05-09T19:25:33.027Z,48185.83
2024-05-09T19:28:00.896Z,48187.46
2024-05-09T19:30:37.933Z,48176.04
2024-05-09T19:33:09.852Z,48181.75
2024-05-09T19:35:38.374Z,48182.16
2024-05-09T19:38:05.723Z,48186.65
2024-05-09T19:40:34.595Z,48185.02
2024-05-09T19:43:04.597Z,48180.12
2024-05-09T19:45:33.734Z,48180.94
2024-05-09T19:48:02.121Z,48181.35
2024-05-09T19:50:37.345Z,48185.43
2024-05-09T19:53:10.392Z,48193.18
2024-05-09T19:55:38.327Z,48182.57
2024-05-09T19:58:06.830Z,48183.39
2024-05-09T20:00:37.038Z,48194.40
2024-05-09T20:03:06.899Z,48193.58
2024-05-09T20:05:34.501Z,48195.62
2024-05-09T20:08:02.099Z,48190.73
2024-05-09T20:10:32.386Z,48186.65
2024-05-09T20:13:02.439Z,48198.88
2024-05-09T20:15:31.253Z,48180.53
2024-05-09T20:17:58.837Z,48187.46
2024-05-09T20:20:35.011Z,48191.95
2024-05-09T20:23:06.200Z,48198.48
2024-05-09T20:25:33.638Z,48198.07
2024-05-09T20:28:01.026Z,48197.25
2024-05-09T20:30:32.448Z,48185.83
2024-05-09T20:33:02.520Z,48194.80
2024-05-09T20:35:31.704Z,48193.17
2024-05-09T20:37:59.245Z,48188.69
2024-05-09T20:40:32.603Z,48193.59
2024-05-09T20:43:03.629Z,48186.24
2024-05-09T20:45:31.123Z,48192.36
2024-05-09T20:47:58.574Z,48192.36
2024-05-09T20:50:36.125Z,48186.24
2024-05-09T20:53:08.741Z,48202.55
2024-05-09T20:55:36.596Z,48190.73
2024-05-09T20:58:04.503Z,48197.26
2024-05-09T21:00:39.739Z,48191.54
2024-05-09T21:03:11.062Z,48203.78
2024-05-09T21:05:39.472Z,48196.43
2024-05-09T21:08:07.392Z,48200.11
2024-05-09T21:10:36.117Z,48199.30
2024-05-09T21:13:04.574Z,48191.54
2024-05-09T21:15:32.361Z,48191.54
2024-05-09T21:17:59.871Z,48196.03
2024-05-09T21:20:31.395Z,48193.17
2024-05-09T21:23:03.621Z,48195.62
2024-05-09T21:25:31.503Z,48189.09
2024-05-09T21:27:58.954Z,48197.25
2024-05-09T21:30:36.900Z,48185.83
2024-05-09T21:33:09.294Z,48198.48
2024-05-09T21:35:37.786Z,48198.48
2024-05-09T21:38:05.586Z,48196.84
2024-05-09T21:40:35.319Z,48197.66
2024-05-09T21:43:05.268Z,48195.62
2024-05-09T21:45:33.575Z,48198.48
2024-05-09T21:48:03.400Z,48189.10
2024-05-09T21:50:37.118Z,48198.48
2024-05-09T21:53:08.128Z,48193.17
2024-05-09T21:55:35.602Z,48202.55
2024-05-09T21:58:03.498Z,48202.96
2024-05-09T22:00:36.760Z,48194.40
2024-05-09T22:03:07.069Z,48195.21
2024-05-09T22:05:35.205Z,48200.11
2024-05-09T22:08:03.050Z,48192.36
2024-05-09T22:10:34.567Z,48194.40
2024-05-09T22:13:07.265Z,48195.21
2024-05-09T22:15:35.692Z,48205.41
2024-05-09T22:18:04.335Z,48198.07
2024-05-09T22:20:37.178Z,48194.80
2024-05-09T22:23:07.530Z,48196.84
2024-05-09T22:25:35.556Z,48197.66
2024-05-09T22:28:03.335Z,48196.03
2024-05-09T22:30:37.029Z,48197.25
2024-05-09T22:33:07.877Z,48198.07
2024-05-09T22:35:35.725Z,48202.56
2024-05-09T22:38:03.383Z,48200.11
2024-05-09T22:40:39.140Z,48200.52
2024-05-09T22:43:17.140Z,48207.04
2024-05-09T22:45:44.831Z,48209.90
2024-05-09T22:48:12.595Z,48201.33
2024-05-09T22:50:40.576Z,48199.29
2024-05-09T22:53:07.901Z,48200.52
2024-05-09T22:55:35.183Z,48205.00
2024-05-09T22:58:02.755Z,48218.46
2024-05-09T23:00:32.208Z,48205.41
2024-05-09T23:03:00.724Z,48214.79
2024-05-09T23:05:28.461Z,48207.45
2024-05-09T23:07:56.037Z,48204.60
2024-05-09T23:10:31.143Z,48209.09
2024-05-09T23:13:03.340Z,48208.68
2024-05-09T23:15:30.940Z,48208.68
2024-05-09T23:17:58.771Z,48198.48
2024-05-09T23:20:33.947Z,48200.11
2024-05-09T23:23:09.773Z,48207.86
2024-05-09T23:25:38.290Z,48207.45
2024-05-09T23:28:06.244Z,48201.74
2024-05-09T23:30:38.345Z,48209.49
2024-05-09T23:33:09.713Z,48201.74
2024-05-09T23:35:37.779Z,48216.84
2024-05-09T23:38:05.119Z,48210.31
2024-05-09T23:43:03.004Z,48214.80
2024-05-09T23:45:30.790Z,48212.34
2024-05-09T23:47:58.303Z,48206.64
2024-05-09T23:50:33.597Z,48201.33
2024-05-09T23:53:04.417Z,48205.41
2024-05-09T23:55:32.471Z,48210.71
2024-05-09T23:58:00.452Z,48204.19
